Time;durP1;ratioP1;P1;durP2;ratioP2;P2;SDS_P1;SDS_P2;PMS_P1;PMS_P2;Temp;Humidity;BMP_temperature;BMP_pressure;BME280_temperature;BME280_humidity;BME280_pressure;Samples;Min_cycle;Max_cycle;Signal;HPM_P1;HPM_P2
2022/09/16 00:02:01;;;;;;;9.60;3.10;;;12.50;99.60;;;;;;5019120;28;20557;-83
2022/09/16 00:04:28;;;;;;;5.00;3.30;;;12.50;98.80;;;;;;5019204;28;20958;-84
2022/09/16 00:06:55;;;;;;;5.43;1.80;;;12.60;98.70;;;;;;5018907;28;20540;-84
2022/09/16 00:09:21;;;;;;;10.27;2.10;;;12.70;97.40;;;;;;5019484;28;20445;-83
2022/09/16 00:11:48;;;;;;;5.57;2.30;;;12.70;97.00;;;;;;5019052;28;20859;-83
2022/09/16 00:14:16;;;;;;;7.00;2.10;;;12.80;97.10;;;;;;5019329;28;20459;-83
2022/09/16 00:16:43;;;;;;;3.40;1.47;;;12.70;97.80;;;;;;5019542;28;20824;-83
2022/09/16 00:19:12;;;;;;;4.60;2.00;;;12.80;97.80;;;;;;5019247;28;20480;-84
2022/09/16 00:21:39;;;;;;;6.40;1.80;;;12.60;97.70;;;;;;5018472;28;20484;-83
2022/09/16 00:24:06;;;;;;;7.13;2.00;;;12.50;98.10;;;;;;5019392;28;20487;-84
2022/09/16 00:26:33;;;;;;;9.33;3.23;;;12.60;98.70;;;;;;5017960;28;20461;-83
2022/09/16 00:29:00;;;;;;;6.73;2.90;;;12.40;99.00;;;;;;5018354;28;20874;-83
2022/09/16 00:31:28;;;;;;;6.37;3.30;;;12.20;99.70;;;;;;5018254;28;20473;-84
2022/09/16 00:33:55;;;;;;;5.90;4.30;;;12.20;99.90;;;;;;5019001;28;20463;-83
2022/09/16 00:36:22;;;;;;;7.73;4.57;;;12.30;99.90;;;;;;5018346;28;20461;-83
2022/09/16 00:38:52;;;;;;;7.43;6.70;;;12.00;99.90;;;;;;5018882;28;20835;-83
2022/09/16 00:41:21;;;;;;;9.63;8.83;;;12.10;99.90;;;;;;5021491;28;20481;-83
2022/09/16 00:43:51;;;;;;;11.70;10.97;;;12.10;99.90;;;;;;5022298;28;20531;-83
2022/09/16 00:46:22;;;;;;;32.63;30.27;;;11.90;99.90;;;;;;5022911;28;20453;-83
2022/09/16 00:48:51;;;;;;;34.83;33.23;;;11.90;99.90;;;;;;5022690;28;20816;-83
2022/09/16 00:51:19;;;;;;;36.67;34.40;;;11.80;99.90;;;;;;5022424;28;20473;-82
2022/09/16 00:53:51;;;;;;;53.77;50.53;;;11.80;99.90;;;;;;5022094;28;20481;-83
2022/09/16 00:56:22;;;;;;;66.03;63.43;;;11.80;99.90;;;;;;5022304;28;20961;-83
2022/09/16 00:58:53;;;;;;;56.87;54.23;;;11.80;99.90;;;;;;5022744;28;20847;-83
2022/09/16 01:01:21;;;;;;;73.63;70.27;;;12.00;99.90;;;;;;5021550;28;20483;-83
2022/09/16 01:03:52;;;;;;;77.10;74.00;;;12.00;99.90;;;;;;5022776;28;20528;-83
2022/09/16 01:06:20;;;;;;;66.83;64.13;;;12.00;99.90;;;;;;5022551;28;20445;-83
2022/09/16 01:08:50;;;;;;;73.53;70.50;;;12.00;99.90;;;;;;5022080;28;20455;-83
2022/09/16 01:11:17;;;;;;;68.17;65.10;;;12.10;99.90;;;;;;5021599;28;20487;-84
2022/09/16 01:13:48;;;;;;;69.63;66.73;;;12.20;99.90;;;;;;5021853;28;20461;-83
2022/09/16 01:16:24;;;;;;;35.20;33.60;;;12.40;99.90;;;;;;5021637;28;20455;-83
2022/09/16 01:19:02;;;;;;;32.90;31.03;;;12.40;99.90;;;;;;5021971;28;20460;-83
2022/09/16 01:21:37;;;;;;;28.23;26.17;;;12.50;99.90;;;;;;5021756;28;21023;-83
2022/09/16 01:24:26;;;;;;;26.87;25.17;;;12.50;99.90;;;;;;5021034;28;20461;-82
2022/09/16 01:27:18;;;;;;;19.63;18.43;;;12.60;99.90;;;;;;5021351;28;20445;-84
2022/09/16 01:30:21;;;;;;;19.10;17.40;;;12.60;99.90;;;;;;5021663;28;20440;-83
2022/09/16 01:33:03;;;;;;;17.70;16.60;;;12.60;99.90;;;;;;5021184;28;20467;-83
2022/09/16 01:35:47;;;;;;;16.10;13.60;;;12.80;99.90;;;;;;5021305;28;20499;-83
2022/09/16 01:38:28;;;;;;;10.20;8.83;;;12.70;99.90;;;;;;5020956;28;20465;-84
2022/09/16 01:41:06;;;;;;;13.17;8.40;;;12.80;99.90;;;;;;5021033;28;20475;-83
2022/09/16 01:43:44;;;;;;;11.43;5.60;;;12.90;99.90;;;;;;5021425;28;20451;-82
2022/09/16 01:46:19;;;;;;;7.90;6.13;;;12.90;99.90;;;;;;5020994;28;20509;-83
2022/09/16 01:48:54;;;;;;;10.73;6.47;;;12.90;99.90;;;;;;5020322;28;20849;-83
2022/09/16 01:51:25;;;;;;;8.20;6.23;;;13.00;99.90;;;;;;5020085;28;20476;-83
2022/09/16 01:54:02;;;;;;;13.97;6.53;;;13.00;99.90;;;;;;5020301;28;20449;-83
2022/09/16 01:56:36;;;;;;;8.00;7.33;;;13.00;99.90;;;;;;5020698;28;20452;-83
2022/09/16 01:59:08;;;;;;;9.67;7.67;;;12.90;99.90;;;;;;5021062;28;20477;-82
2022/09/16 02:01:39;;;;;;;9.57;8.67;;;12.80;99.90;;;;;;5021401;28;20563;-83
2022/09/16 02:04:14;;;;;;;8.43;7.57;;;12.90;99.90;;;;;;5020886;28;20879;-83
2022/09/16 02:06:44;;;;;;;10.97;10.07;;;12.80;99.90;;;;;;5020171;28;20535;-84
2022/09/16 02:09:16;;;;;;;11.87;10.80;;;12.80;99.90;;;;;;5020122;28;20945;-83
2022/09/16 02:11:47;;;;;;;17.97;16.67;;;12.90;99.90;;;;;;5020224;28;20572;-82
2022/09/16 02:14:18;;;;;;;19.37;18.07;;;12.80;99.90;;;;;;5020017;28;20460;-82
2022/09/16 02:16:51;;;;;;;22.80;21.43;;;12.70;99.90;;;;;;5021215;28;20442;-81
2022/09/16 02:19:23;;;;;;;22.03;20.47;;;12.70;99.90;;;;;;5021136;28;20472;-81
2022/09/16 02:21:52;;;;;;;38.10;36.00;;;12.60;99.90;;;;;;5021247;28;20536;-80
2022/09/16 02:24:21;;;;;;;88.30;84.63;;;12.50;99.90;;;;;;5021260;28;20540;-80
2022/09/16 02:26:52;;;;;;;91.10;87.40;;;12.40;99.90;;;;;;5021433;28;20476;-81
2022/09/16 02:29:24;;;;;;;123.43;118.30;;;12.30;99.90;;;;;;5021803;28;20433;-81
2022/09/16 02:31:54;;;;;;;66.23;62.53;;;12.40;99.90;;;;;;5021321;28;20989;-81
2022/09/16 02:34:26;;;;;;;24.30;22.83;;;12.30;99.90;;;;;;5021156;28;20456;-81
2022/09/16 02:36:56;;;;;;;33.17;31.57;;;12.40;99.90;;;;;;5020627;28;20453;-81
2022/09/16 02:39:30;;;;;;;29.30;27.57;;;12.30;99.90;;;;;;5021671;28;20457;-81
2022/09/16 02:41:58;;;;;;;39.23;36.67;;;12.40;99.90;;;;;;5020672;28;20473;-81
2022/09/16 02:44:25;;;;;;;44.33;42.33;;;12.30;99.90;;;;;;5020693;28;20460;-80
2022/09/16 02:47:00;;;;;;;57.27;54.87;;;12.20;99.90;;;;;;5020814;28;20457;-81
2022/09/16 02:49:36;;;;;;;40.67;38.77;;;12.30;99.90;;;;;;5020752;28;20892;-81
2022/09/16 02:52:13;;;;;;;27.10;25.20;;;12.20;99.90;;;;;;5020286;28;20491;-81
2022/09/16 02:54:47;;;;;;;26.67;24.80;;;12.20;99.90;;;;;;5020554;28;20440;-81
2022/09/16 02:57:15;;;;;;;23.73;22.27;;;12.10;99.90;;;;;;5020806;28;20447;-80
2022/09/16 02:59:42;;;;;;;26.57;24.90;;;12.00;99.90;;;;;;5020021;28;20484;-80
2022/09/16 03:02:09;;;;;;;36.90;35.00;;;12.00;99.90;;;;;;5020539;28;20473;-81
2022/09/16 03:04:37;;;;;;;55.67;53.47;;;11.90;99.90;;;;;;5020098;28;20489;-80
2022/09/16 03:07:06;;;;;;;60.03;57.27;;;12.00;99.90;;;;;;5019930;28;20460;-81
2022/09/16 03:09:36;;;;;;;130.60;125.63;;;11.90;99.90;;;;;;5019786;28;20491;-81
2022/09/16 03:12:33;;;;;;;169.50;163.20;;;12.00;99.90;;;;;;5019444;28;20473;-81
2022/09/16 03:15:22;;;;;;;213.13;205.77;;;11.90;99.90;;;;;;5014285;28;20853;-80
2022/09/16 03:18:17;;;;;;;273.63;263.37;;;11.90;99.90;;;;;;5020358;28;20442;-80
2022/09/16 03:20:52;;;;;;;294.90;283.83;;;11.80;99.90;;;;;;5020080;28;20476;-80
2022/09/16 03:23:29;;;;;;;313.47;301.23;;;11.80;99.90;;;;;;5020550;28;20507;-81
2022/09/16 03:26:04;;;;;;;346.97;333.57;;;11.90;99.90;;;;;;5019429;28;20438;-80
2022/09/16 03:28:40;;;;;;;353.53;339.80;;;11.90;99.90;;;;;;5019599;28;20476;-80
2022/09/16 03:31:10;;;;;;;334.70;321.97;;;11.70;99.90;;;;;;5018721;28;20473;-80
2022/09/16 03:33:42;;;;;;;347.07;333.00;;;11.80;99.90;;;;;;5019292;28;20959;-80
2022/09/16 03:36:15;;;;;;;340.57;326.70;;;11.90;99.90;;;;;;5019084;28;20437;-81
2022/09/16 03:38:43;;;;;;;340.23;326.83;;;11.90;99.90;;;;;;5019568;28;20505;-81
2022/09/16 03:41:10;;;;;;;234.43;225.97;;;11.80;99.90;;;;;;5019419;28;20469;-81
2022/09/16 03:43:37;;;;;;;149.90;144.40;;;11.90;99.90;;;;;;5019480;28;20453;-81
2022/09/16 03:46:06;;;;;;;103.00;99.10;;;12.00;99.90;;;;;;5019848;28;20449;-81
2022/09/16 03:48:33;;;;;;;61.23;58.70;;;12.10;99.90;;;;;;5019540;28;20489;-81
2022/09/16 03:50:59;;;;;;;59.63;57.33;;;12.20;99.90;;;;;;5019682;28;20477;-81
2022/09/16 03:53:27;;;;;;;51.30;49.10;;;12.10;99.90;;;;;;5018780;28;20467;-81
2022/09/16 03:55:54;;;;;;;44.83;42.57;;;12.10;99.90;;;;;;5018731;28;20453;-81
2022/09/16 03:58:21;;;;;;;47.07;44.70;;;12.10;99.90;;;;;;5019295;28;20453;-81
2022/09/16 04:00:51;;;;;;;37.07;34.70;;;12.00;99.90;;;;;;5019569;28;20484;-81
2022/09/16 04:03:18;;;;;;;37.07;35.43;;;11.90;99.90;;;;;;5018843;28;20457;-80
2022/09/16 04:05:44;;;;;;;39.40;37.40;;;12.00;99.90;;;;;;5019168;28;20484;-81
2022/09/16 04:08:11;;;;;;;38.20;36.27;;;11.90;99.90;;;;;;5019411;28;20460;-81
2022/09/16 04:10:40;;;;;;;29.17;27.27;;;12.00;99.90;;;;;;5019233;28;20492;-80
2022/09/16 04:13:08;;;;;;;28.00;26.20;;;12.10;99.90;;;;;;5018943;28;20453;-81
2022/09/16 04:15:37;;;;;;;39.47;37.27;;;12.00;99.90;;;;;;5018065;28;20453;-81
2022/09/16 04:18:04;;;;;;;28.43;26.40;;;12.00;99.90;;;;;;5019187;28;20457;-80
2022/09/16 04:20:33;;;;;;;25.93;23.97;;;12.10;99.90;;;;;;5019551;28;20499;-81
2022/09/16 04:22:59;;;;;;;31.77;29.97;;;11.90;99.90;;;;;;5019598;28;20480;-81
2022/09/16 04:25:36;;;;;;;36.63;34.60;;;12.00;99.90;;;;;;5018603;28;20970;-81
2022/09/16 04:28:04;;;;;;;25.40;23.80;;;12.00;99.90;;;;;;5018474;28;20476;-81
2022/09/16 04:30:31;;;;;;;35.67;33.87;;;12.20;99.90;;;;;;5019280;28;20551;-81
2022/09/16 04:33:03;;;;;;;34.77;32.87;;;12.10;99.90;;;;;;5018022;28;20461;-81
2022/09/16 04:35:30;;;;;;;27.27;25.20;;;12.00;99.90;;;;;;5018154;28;20461;-81
2022/09/16 04:38:00;;;;;;;27.20;25.23;;;11.90;99.90;;;;;;5018580;28;20493;-81
2022/09/16 04:40:27;;;;;;;27.47;26.07;;;12.00;99.90;;;;;;5018421;28;20473;-80
2022/09/16 04:42:54;;;;;;;24.33;22.50;;;11.80;99.90;;;;;;5018667;28;20480;-81
2022/09/16 04:45:24;;;;;;;26.00;24.60;;;11.80;99.90;;;;;;5017383;28;20449;-81
2022/09/16 04:48:02;;;;;;;23.37;21.63;;;11.80;99.90;;;;;;5018631;28;20539;-81
2022/09/16 04:50:39;;;;;;;23.43;22.23;;;11.90;99.90;;;;;;5018814;28;20476;-80
2022/09/16 04:53:10;;;;;;;12.57;11.37;;;11.90;99.90;;;;;;5019030;28;20464;-82
2022/09/16 04:55:44;;;;;;;15.90;14.90;;;11.90;99.90;;;;;;5017666;28;20942;-81
2022/09/16 04:58:15;;;;;;;13.57;12.23;;;12.00;99.90;;;;;;5017986;28;20449;-82
2022/09/16 05:00:49;;;;;;;13.33;12.40;;;12.00;99.90;;;;;;5017207;28;20535;-82
2022/09/16 05:03:18;;;;;;;13.90;9.73;;;12.10;99.90;;;;;;5017908;28;20453;-82
2022/09/16 05:05:45;;;;;;;12.40;8.23;;;12.10;99.90;;;;;;5017189;28;20460;-82
2022/09/16 05:08:14;;;;;;;11.70;6.70;;;12.20;99.90;;;;;;5017358;28;20500;-83
2022/09/16 05:10:41;;;;;;;8.53;6.50;;;12.20;99.90;;;;;;5016956;28;20472;-82
2022/09/16 05:13:08;;;;;;;7.70;4.70;;;12.10;99.90;;;;;;5018939;28;20449;-82
2022/09/16 05:15:34;;;;;;;9.30;5.70;;;12.10;99.90;;;;;;5018913;28;20456;-82
2022/09/16 05:18:02;;;;;;;10.43;5.70;;;12.10;99.90;;;;;;5019320;28;20464;-81
2022/09/16 05:20:29;;;;;;;7.70;5.20;;;12.10;99.90;;;;;;5018977;28;20481;-81
2022/09/16 05:22:56;;;;;;;12.80;4.23;;;12.00;99.90;;;;;;5018704;28;20836;-81
2022/09/16 05:25:23;;;;;;;9.63;5.47;;;12.10;99.90;;;;;;5018285;28;20461;-82
2022/09/16 05:27:49;;;;;;;7.30;4.83;;;12.10;99.90;;;;;;5019779;28;20480;-82
2022/09/16 05:30:16;;;;;;;7.30;5.77;;;12.10;99.90;;;;;;5020545;28;20453;-82
2022/09/16 05:32:43;;;;;;;6.20;3.83;;;12.20;99.90;;;;;;5021699;28;20809;-82
2022/09/16 05:35:11;;;;;;;7.63;4.37;;;12.20;99.90;;;;;;5021138;28;20456;-82
2022/09/16 05:37:38;;;;;;;7.43;4.23;;;12.20;99.90;;;;;;5022079;28;20465;-82
2022/09/16 05:40:05;;;;;;;7.00;3.53;;;12.30;99.90;;;;;;5021755;28;20488;-81
2022/09/16 05:42:32;;;;;;;8.00;4.07;;;12.30;99.90;;;;;;5022142;28;20496;-81
2022/09/16 05:44:59;;;;;;;6.80;4.30;;;12.20;99.90;;;;;;5021796;28;20457;-82
2022/09/16 05:47:26;;;;;;;7.80;3.83;;;12.30;99.90;;;;;;5021810;28;20457;-81
2022/09/16 05:49:53;;;;;;;8.23;3.80;;;12.40;99.90;;;;;;5021836;28;20488;-81
2022/09/16 05:52:23;;;;;;;6.00;2.70;;;12.40;99.90;;;;;;5022591;28;20531;-81
2022/09/16 05:54:49;;;;;;;7.90;2.70;;;12.40;99.90;;;;;;5021742;28;20468;-82
2022/09/16 05:57:16;;;;;;;18.10;3.33;;;12.40;99.90;;;;;;5021891;28;20453;-81
2022/09/16 05:59:43;;;;;;;14.00;5.87;;;12.50;99.90;;;;;;5020836;28;20693;-82
2022/09/16 06:02:11;;;;;;;5.93;2.90;;;12.50;99.90;;;;;;5021604;28;20488;-81
2022/09/16 06:04:38;;;;;;;10.07;3.87;;;12.50;99.90;;;;;;5021085;28;20460;-82
2022/09/16 06:07:06;;;;;;;9.17;3.87;;;12.50;99.90;;;;;;5021855;28;20460;-81
2022/09/16 06:09:34;;;;;;;6.73;2.87;;;12.50;99.90;;;;;;5021448;28;20503;-83
2022/09/16 06:12:00;;;;;;;6.40;2.63;;;12.50;99.90;;;;;;5021060;28;20481;-83
2022/09/16 06:14:27;;;;;;;5.53;3.00;;;12.50;99.90;;;;;;5020838;28;20458;-81
2022/09/16 06:16:54;;;;;;;8.03;3.20;;;12.60;99.90;;;;;;5020508;28;20457;-82
2022/09/16 06:19:21;;;;;;;18.43;3.60;;;12.70;99.90;;;;;;5020918;28;20525;-82
2022/09/16 06:21:48;;;;;;;7.07;3.00;;;12.60;99.80;;;;;;5020259;28;20476;-83
2022/09/16 06:24:16;;;;;;;9.00;2.40;;;12.70;99.90;;;;;;5020958;28;20463;-83
2022/09/16 06:26:45;;;;;;;12.23;2.60;;;12.70;99.20;;;;;;5019874;28;20453;-83
2022/09/16 06:29:13;;;;;;;11.13;2.67;;;12.70;99.00;;;;;;5020936;28;20453;-83
2022/09/16 06:31:40;;;;;;;6.87;2.50;;;12.70;98.70;;;;;;5020403;28;20481;-83
2022/09/16 06:34:12;;;;;;;4.40;2.40;;;12.70;99.00;;;;;;5019296;28;20457;-83
2022/09/16 06:36:39;;;;;;;8.40;2.50;;;12.80;98.80;;;;;;5021353;28;20441;-83
2022/09/16 06:39:06;;;;;;;13.60;2.77;;;12.80;98.80;;;;;;5019658;28;20457;-83
2022/09/16 06:41:34;;;;;;;10.97;3.17;;;12.80;98.80;;;;;;5020229;28;20485;-83
2022/09/16 06:44:02;;;;;;;5.53;2.73;;;12.90;98.80;;;;;;5020394;28;20464;-82
2022/09/16 06:46:29;;;;;;;6.10;2.30;;;13.00;98.80;;;;;;5020028;28;20457;-83
2022/09/16 06:48:58;;;;;;;8.73;2.33;;;13.00;98.90;;;;;;5020603;28;20457;-83
2022/09/16 06:51:26;;;;;;;6.90;2.33;;;13.10;98.40;;;;;;5018877;28;20484;-83
2022/09/16 06:53:55;;;;;;;7.60;2.50;;;13.10;98.30;;;;;;5020066;28;20833;-82
2022/09/16 06:56:22;;;;;;;6.10;1.97;;;13.20;97.70;;;;;;5019738;28;20460;-83
2022/09/16 06:58:50;;;;;;;9.57;2.50;;;13.30;97.70;;;;;;5020235;28;20539;-83
2022/09/16 07:01:20;;;;;;;6.53;2.20;;;13.20;97.50;;;;;;5019982;28;20517;-83
2022/09/16 07:03:50;;;;;;;9.70;2.20;;;13.20;96.90;;;;;;5020063;28;20449;-84
2022/09/16 07:06:18;;;;;;;11.50;2.50;;;13.30;97.50;;;;;;5019603;28;20460;-83
2022/09/16 07:08:45;;;;;;;13.97;2.70;;;13.40;97.00;;;;;;5020787;28;20457;-84
2022/09/16 07:11:13;;;;;;;5.00;1.90;;;13.40;97.60;;;;;;5021860;28;20538;-84
2022/09/16 07:13:46;;;;;;;4.90;2.07;;;13.30;97.10;;;;;;5022896;28;20456;-86
2022/09/16 07:16:15;;;;;;;5.10;1.83;;;13.40;97.90;;;;;;5021748;28;20468;-85
2022/09/16 07:18:43;;;;;;;8.63;2.40;;;13.40;97.20;;;;;;5020921;28;20460;-84
2022/09/16 07:21:14;;;;;;;8.03;2.37;;;13.30;96.90;;;;;;5020549;28;20487;-84
2022/09/16 07:23:42;;;;;;;8.63;2.75;;;13.50;96.70;;;;;;5020130;28;21017;-83
2022/09/16 07:26:15;;;;;;;8.50;2.67;;;13.50;96.80;;;;;;5018154;28;20659;-84
2022/09/16 07:28:45;;;;;;;19.63;3.67;;;13.60;96.80;;;;;;5020854;28;20447;-84
2022/09/16 07:31:15;;;;;;;6.23;2.53;;;13.70;96.70;;;;;;5020039;28;20473;-84
2022/09/16 07:33:47;;;;;;;5.57;2.43;;;13.80;96.60;;;;;;5019432;28;20976;-84
2022/09/16 07:36:15;;;;;;;6.73;2.13;;;13.90;95.50;;;;;;5019459;28;20941;-84
2022/09/16 07:38:45;;;;;;;6.57;2.20;;;14.00;95.10;;;;;;5019464;28;20546;-84
2022/09/16 07:41:14;;;;;;;6.80;2.77;;;14.20;95.70;;;;;;5019777;28;20477;-84
2022/09/16 07:43:42;;;;;;;10.43;2.40;;;14.00;94.90;;;;;;5019640;28;20539;-84
2022/09/16 07:46:11;;;;;;;6.50;2.60;;;14.10;94.90;;;;;;5020137;28;20449;-84
2022/09/16 07:48:38;;;;;;;9.70;2.20;;;14.10;95.10;;;;;;5019530;28;20508;-84
2022/09/16 07:51:11;;;;;;;12.83;2.60;;;14.00;94.50;;;;;;5019513;28;20528;-84
2022/09/16 07:53:45;;;;;;;7.33;2.50;;;14.10;95.70;;;;;;5019764;28;20540;-85
2022/09/16 07:56:14;;;;;;;12.33;2.60;;;14.10;94.40;;;;;;5019429;28;20452;-85
2022/09/16 07:58:42;;;;;;;9.70;2.63;;;14.30;95.10;;;;;;5018961;28;20512;-84
2022/09/16 08:01:09;;;;;;;6.50;2.73;;;14.70;94.60;;;;;;5019934;28;20519;-84
2022/09/16 08:03:41;;;;;;;7.50;2.07;;;14.80;93.30;;;;;;5019671;28;20737;-83
2022/09/16 08:06:20;;;;;;;8.13;2.37;;;14.70;93.40;;;;;;5019138;28;20536;-84
2022/09/16 08:08:48;;;;;;;7.80;1.50;;;14.80;93.00;;;;;;5019888;28;20504;-83
2022/09/16 08:11:19;;;;;;;7.67;2.93;;;14.90;92.70;;;;;;5018927;28;20473;-83
2022/09/16 08:13:46;;;;;;;8.50;2.07;;;15.10;92.40;;;;;;5019556;28;20541;-83
2022/09/16 08:16:17;;;;;;;6.60;2.27;;;15.10;91.20;;;;;;5019338;28;20464;-83
2022/09/16 08:18:44;;;;;;;16.13;2.57;;;15.30;91.90;;;;;;5000187;28;20470;-83
2022/09/16 08:21:18;;;;;;;15.90;2.00;;;15.20;92.60;;;;;;5000178;28;20572;-83
2022/09/16 08:23:48;;;;;;;7.40;1.90;;;15.10;92.10;;;;;;5000293;28;20468;-83
2022/09/16 08:26:20;;;;;;;4.67;1.80;;;14.80;91.20;;;;;;4999592;28;20548;-83
2022/09/16 08:28:52;;;;;;;8.97;1.93;;;14.90;91.20;;;;;;4999353;28;20459;-83
2022/09/16 08:31:22;;;;;;;5.10;1.80;;;15.20;91.00;;;;;;4999943;28;20475;-83
2022/09/16 08:33:49;;;;;;;6.83;2.07;;;15.40;90.90;;;;;;4999893;28;21001;-83
2022/09/16 08:36:19;;;;;;;5.60;1.50;;;15.30;90.60;;;;;;4999813;28;20541;-84
2022/09/16 08:38:54;;;;;;;7.97;1.80;;;15.30;88.80;;;;;;5000987;28;20447;-83
2022/09/16 08:42:06;;;;;;;10.83;3.00;;;15.40;90.20;;;;;;4999993;28;20487;-83
2022/09/16 08:44:49;;;;;;;14.67;1.97;;;15.70;90.30;;;;;;4966143;28;20470;-84
2022/09/16 08:47:36;;;;;;;13.70;2.73;;;15.60;89.30;;;;;;5000361;28;20518;-83
2022/09/16 08:50:13;;;;;;;6.43;1.87;;;15.60;89.80;;;;;;4999275;28;20463;-83
2022/09/16 08:52:45;;;;;;;5.80;1.83;;;16.30;87.00;;;;;;5000383;28;20461;-84
2022/09/16 08:55:17;;;;;;;7.23;2.10;;;16.70;85.20;;;;;;4999620;28;20460;-83
2022/09/16 08:57:54;;;;;;;5.27;1.70;;;16.70;81.00;;;;;;5000540;28;20466;-84
2022/09/16 09:00:21;;;;;;;6.27;1.80;;;17.10;81.40;;;;;;5000445;28;20848;-84
2022/09/16 09:02:53;;;;;;;10.17;2.37;;;17.40;77.40;;;;;;5003686;28;20459;-84
2022/09/16 09:05:38;;;;;;;7.00;1.70;;;18.10;76.40;;;;;;5003536;28;20487;-84
2022/09/16 09:08:20;;;;;;;8.13;1.60;;;17.30;75.70;;;;;;5004530;28;20457;-84
2022/09/16 09:10:52;;;;;;;6.27;1.10;;;17.20;74.40;;;;;;5004333;28;20481;-84
2022/09/16 09:13:36;;;;;;;5.87;1.20;;;17.10;76.30;;;;;;5003314;28;20466;-84
2022/09/16 09:16:15;;;;;;;6.40;1.23;;;16.80;77.20;;;;;;5003363;28;20455;-84
2022/09/16 09:18:54;;;;;;;5.97;1.40;;;16.90;75.30;;;;;;5003616;28;20534;-83
2022/09/16 09:21:30;;;;;;;5.73;1.50;;;16.70;76.60;;;;;;5002756;28;20484;-84
2022/09/16 09:24:37;;;;;;;5.30;1.13;;;16.60;75.90;;;;;;5003091;28;20462;-84
2022/09/16 09:27:14;;;;;;;5.63;1.60;;;16.50;76.90;;;;;;5002687;28;20454;-84
2022/09/16 09:29:57;;;;;;;4.07;1.20;;;16.40;81.10;;;;;;5003732;28;20460;-83
2022/09/16 09:32:32;;;;;;;4.53;1.20;;;16.30;79.70;;;;;;5003689;28;20561;-84
2022/09/16 09:35:12;;;;;;;11.47;1.73;;;16.70;78.60;;;;;;5004290;28;20449;-83
2022/09/16 09:37:55;;;;;;;4.93;1.47;;;17.20;74.40;;;;;;5005614;28;20458;-84
2022/09/16 09:40:33;;;;;;;5.70;1.50;;;17.60;74.80;;;;;;5004857;28;20432;-84
2022/09/16 09:43:12;;;;;;;4.13;1.43;;;17.90;72.30;;;;;;5004350;28;20450;-84
2022/09/16 09:46:02;;;;;;;5.30;1.10;;;18.40;71.70;;;;;;5003692;28;20467;-84
2022/09/16 09:48:40;;;;;;;9.97;1.43;;;19.30;71.30;;;;;;5004988;28;20515;-84
2022/09/16 09:51:17;;;;;;;9.97;1.30;;;19.40;65.10;;;;;;5002909;28;20511;-84
2022/09/16 09:53:51;;;;;;;5.57;1.17;;;18.60;64.70;;;;;;5004008;28;20467;-81
2022/09/16 09:56:31;;;;;;;13.43;1.53;;;18.50;65.70;;;;;;5001744;28;20545;-84
2022/09/16 09:59:15;;;;;;;4.87;1.37;;;18.60;65.70;;;;;;5001784;28;20462;-85
2022/09/16 10:01:56;;;;;;;9.07;1.53;;;19.10;68.70;;;;;;5001349;28;20470;-84
2022/09/16 10:04:25;;;;;;;10.80;1.30;;;19.20;62.60;;;;;;5005674;28;20517;-85
2022/09/16 10:06:59;;;;;;;11.37;2.63;;;19.30;63.80;;;;;;5005808;28;20456;-85
2022/09/16 10:09:32;;;;;;;4.73;1.20;;;20.20;62.10;;;;;;5002194;28;20459;-84
2022/09/16 10:12:03;;;;;;;6.97;1.50;;;20.20;57.90;;;;;;5002790;28;20928;-85
2022/09/16 10:17:27;;;;;;;6.30;1.20;;;20.30;57.30;;;;;;5001992;28;20466;-84
2022/09/16 10:20:09;;;;;;;10.40;1.40;;;20.90;49.60;;;;;;4999030;28;20458;-85
2022/09/16 10:22:41;;;;;;;6.47;1.30;;;20.80;53.90;;;;;;5001143;28;20536;-84
2022/09/16 10:25:25;;;;;;;6.83;1.20;;;19.90;50.80;;;;;;5001213;28;20460;-85
2022/09/16 10:28:00;;;;;;;5.10;0.90;;;19.90;52.10;;;;;;5000140;28;20462;-85
2022/09/16 10:30:56;;;;;;;8.00;1.30;;;20.20;53.40;;;;;;5001598;28;20440;-84
2022/09/16 10:33:43;;;;;;;7.00;1.40;;;19.90;53.10;;;;;;5000668;28;20460;-85
2022/09/16 10:36:27;;;;;;;7.33;1.53;;;18.90;56.00;;;;;;5003329;28;20498;-84
2022/09/16 10:38:58;;;;;;;6.50;1.00;;;18.00;56.20;;;;;;5005075;28;20495;-84
2022/09/16 10:41:28;;;;;;;6.30;1.13;;;17.80;60.60;;;;;;5002060;28;20470;-85
2022/09/16 10:44:04;;;;;;;5.70;1.00;;;18.30;60.30;;;;;;5003577;28;20455;-85
2022/09/16 10:46:41;;;;;;;5.67;1.40;;;19.00;57.80;;;;;;5003368;28;20823;-85
2022/09/16 10:49:12;;;;;;;5.77;1.40;;;19.60;56.20;;;;;;5003558;28;20902;-85
2022/09/16 10:51:39;;;;;;;3.87;0.80;;;20.10;54.50;;;;;;5023257;23;20676;-83
2022/09/16 10:54:06;;;;;;;8.43;1.47;;;20.90;52.70;;;;;;4995514;28;20455;-81
2022/09/16 10:56:35;;;;;;;9.80;1.47;;;20.80;47.90;;;;;;4994431;28;20463;-82
2022/09/16 10:59:04;;;;;;;8.80;1.10;;;19.90;53.10;;;;;;4995014;28;20447;-81
2022/09/16 11:01:40;;;;;;;5.60;1.20;;;19.80;45.10;;;;;;4995578;28;20472;-83
2022/09/16 11:04:40;;;;;;;6.97;1.20;;;20.30;44.50;;;;;;4995873;28;20455;-82
2022/09/16 11:07:14;;;;;;;4.30;1.00;;;20.50;44.80;;;;;;4995532;28;20453;-80
2022/09/16 11:09:50;;;;;;;5.90;1.60;;;20.80;45.10;;;;;;4995820;28;20817;-83
2022/09/16 11:12:36;;;;;;;12.37;1.37;;;21.10;45.40;;;;;;4995198;28;20494;-82
2022/09/16 11:15:19;;;;;;;9.13;1.23;;;21.10;42.90;;;;;;4994995;28;20841;-83
2022/09/16 11:17:58;;;;;;;5.30;1.10;;;20.30;43.00;;;;;;4995670;28;20465;-81
2022/09/16 11:20:51;;;;;;;9.30;1.37;;;19.80;44.90;;;;;;4995131;28;20464;-83
2022/09/16 11:23:30;;;;;;;5.77;0.83;;;20.40;43.00;;;;;;4995036;28;20955;-82
2022/09/16 11:26:04;;;;;;;7.50;1.73;;;20.60;35.80;;;;;;4995046;28;20459;-82
2022/09/16 11:28:58;;;;;;;5.60;0.90;;;21.50;36.70;;;;;;4994559;28;20464;-82
2022/09/16 11:31:39;;;;;;;4.87;1.13;;;21.10;30.20;;;;;;4994641;28;20496;-82
2022/09/16 11:34:16;;;;;;;5.00;1.30;;;20.40;36.30;;;;;;4995902;28;20464;-80
2022/09/16 11:36:54;;;;;;;5.67;0.97;;;20.30;41.10;;;;;;4995197;28;20460;-83
2022/09/16 11:39:41;;;;;;;5.20;0.97;;;19.40;41.60;;;;;;4993489;28;20453;-82
2022/09/16 11:42:16;;;;;;;5.87;1.17;;;19.90;44.10;;;;;;4994723;28;20485;-83
2022/09/16 11:44:48;;;;;;;4.70;0.90;;;20.40;38.90;;;;;;4993960;28;20466;-80
2022/09/16 11:47:36;;;;;;;4.97;1.20;;;20.50;39.90;;;;;;4993710;28;20494;-86
2022/09/16 11:50:25;;;;;;;6.67;1.93;;;20.00;39.70;;;;;;4994519;28;20464;-84
2022/09/16 11:53:22;;;;;;;5.10;1.40;;;19.80;40.20;;;;;;4995191;28;20485;-84
2022/09/16 11:55:54;;;;;;;4.27;0.70;;;18.00;60.00;;;;;;4993474;28;20465;-84
2022/09/16 11:58:33;;;;;;;5.00;0.90;;;14.90;99.90;;;;;;4995046;28;20524;-85
2022/09/16 12:01:05;;;;;;;3.80;0.80;;;11.40;99.90;;;;;;4993935;28;20876;-84
2022/09/16 12:03:42;;;;;;;3.60;0.60;;;10.90;99.90;;;;;;4994460;28;20207;-79
2022/09/16 12:06:11;;;;;;;3.60;0.60;;;11.30;99.90;;;;;;4994922;28;20458;-83
2022/09/16 12:08:50;;;;;;;3.60;0.70;;;10.60;99.90;;;;;;4993872;28;20458;-81
2022/09/16 12:11:22;;;;;;;4.67;1.87;;;11.30;99.90;;;;;;4994815;28;21010;-80
2022/09/16 12:13:52;;;;;;;3.57;0.60;;;11.80;99.90;;;;;;4993551;28;20454;-80
2022/09/16 12:16:24;;;;;;;3.60;0.70;;;11.00;99.90;;;;;;4993491;28;20460;-80
2022/09/16 12:18:56;;;;;;;3.50;0.70;;;10.90;99.90;;;;;;4994603;28;20438;-82
2022/09/16 12:21:27;;;;;;;3.50;0.70;;;11.80;99.90;;;;;;4994083;28;20482;-81
2022/09/16 12:23:59;;;;;;;3.40;0.60;;;12.30;99.90;;;;;;4993129;28;20460;-80
2022/09/16 12:26:30;;;;;;;3.50;0.70;;;12.60;99.90;;;;;;4994061;28;20460;-81
2022/09/16 12:29:02;;;;;;;3.43;1.00;;;13.00;99.90;;;;;;4994171;28;20450;-81
2022/09/16 12:31:33;;;;;;;3.40;0.80;;;12.40;99.90;;;;;;4993656;28;21003;-80
2022/09/16 12:34:05;;;;;;;3.37;0.80;;;12.30;99.90;;;;;;4993098;28;20442;-78
2022/09/16 12:36:34;;;;;;;3.40;0.87;;;12.70;99.90;;;;;;4994269;28;20954;-82
2022/09/16 12:39:01;;;;;;;3.40;0.83;;;12.70;99.90;;;;;;4996878;28;20461;-80
2022/09/16 12:41:51;;;;;;;3.40;0.90;;;12.90;99.90;;;;;;4995982;28;20496;-81
2022/09/16 12:44:48;;;;;;;3.40;0.90;;;13.00;99.90;;;;;;4997057;28;20454;-80
2022/09/16 12:47:26;;;;;;;3.40;0.90;;;13.00;99.90;;;;;;4996339;28;20781;-80
2022/09/16 12:50:26;;;;;;;3.40;0.90;;;13.20;99.90;;;;;;4996565;28;20453;-80
2022/09/16 12:53:13;;;;;;;3.40;1.00;;;12.80;99.90;;;;;;4992222;28;20851;-81
2022/09/16 12:56:02;;;;;;;3.40;0.90;;;13.00;99.90;;;;;;4996443;28;20453;-80
2022/09/16 12:59:11;;;;;;;3.40;0.90;;;12.60;99.90;;;;;;4996202;28;20879;-80
2022/09/16 13:01:43;;;;;;;3.33;0.90;;;12.60;99.90;;;;;;4997496;28;20488;-81
2022/09/16 13:04:15;;;;;;;3.47;1.00;;;12.70;99.90;;;;;;4996376;28;20460;-80
2022/09/16 13:06:48;;;;;;;3.50;1.50;;;12.40;99.90;;;;;;4996510;28;20461;-81
2022/09/16 13:09:21;;;;;;;3.40;1.00;;;12.40;99.90;;;;;;4996638;28;20461;-80
2022/09/16 13:11:54;;;;;;;3.40;0.90;;;12.30;99.90;;;;;;4996529;28;20477;-81